createdAt,value
2023-08-16T00:01:01.050Z,20.12
2023-08-16T00:03:27.995Z,20.10
2023-08-16T00:05:54.754Z,20.03
2023-08-16T00:08:21.306Z,19.94
2023-08-16T00:10:47.829Z,19.97
2023-08-16T00:13:14.522Z,20.00
2023-08-16T00:15:42.408Z,19.98
2023-08-16T00:18:09.034Z,19.94
2023-08-16T00:20:35.584Z,19.92
2023-08-16T00:23:02.121Z,19.85
2023-08-16T00:25:28.725Z,19.77
2023-08-16T00:27:55.228Z,19.81
2023-08-16T00:30:21.865Z,19.81
2023-08-16T00:32:49.742Z,19.79
2023-08-16T00:35:16.341Z,19.70
2023-08-16T00:37:42.960Z,19.68
2023-08-16T00:40:10.453Z,19.70
2023-08-16T00:42:36.996Z,19.56
2023-08-16T00:45:04.149Z,19.63
2023-08-16T00:47:30.736Z,19.59
2023-08-16T00:49:58.785Z,19.52
2023-08-16T00:52:25.610Z,19.53
2023-08-16T00:54:52.704Z,19.50
2023-08-16T00:57:19.470Z,19.42
2023-08-16T00:59:46.534Z,19.42
2023-08-16T01:02:14.774Z,19.40
2023-08-16T01:04:42.008Z,19.36
2023-08-16T01:07:12.571Z,19.44
2023-08-16T01:09:39.392Z,19.35
2023-08-16T01:12:11.685Z,19.35
2023-08-16T01:14:46.049Z,19.31
2023-08-16T01:17:15.381Z,19.25
2023-08-16T01:19:42.544Z,19.35
2023-08-16T01:22:20.615Z,19.25
2023-08-16T01:25:05.636Z,19.29
2023-08-16T01:27:33.752Z,19.26
2023-08-16T01:30:00.947Z,19.29
2023-08-16T01:32:28.622Z,19.28
2023-08-16T01:34:55.322Z,19.22
2023-08-16T01:37:22.096Z,19.20
2023-08-16T01:39:53.637Z,19.29
2023-08-16T01:42:22.227Z,19.28
2023-08-16T01:44:52.335Z,19.20
2023-08-16T01:47:19.525Z,19.21
2023-08-16T01:49:46.741Z,19.25
2023-08-16T01:52:13.424Z,19.27
2023-08-16T01:54:39.935Z,19.30
2023-08-16T01:57:06.467Z,19.30
2023-08-16T01:59:33.023Z,19.31
2023-08-16T02:02:01.592Z,19.30
2023-08-16T02:04:28.131Z,19.20
2023-08-16T02:06:56.396Z,19.18
2023-08-16T02:09:22.948Z,19.18
2023-08-16T02:11:49.494Z,19.12
2023-08-16T02:14:16.201Z,19.09
2023-08-16T02:16:42.814Z,19.15
2023-08-16T02:19:11.224Z,19.13
2023-08-16T02:21:37.898Z,19.10
2023-08-16T02:24:04.751Z,19.06
2023-08-16T02:26:31.286Z,19.02
2023-08-16T02:28:57.875Z,18.95
2023-08-16T02:31:24.472Z,18.94
2023-08-16T02:33:51.115Z,18.92
2023-08-16T02:36:18.986Z,18.92
2023-08-16T02:38:45.672Z,18.92
2023-08-16T02:41:12.252Z,18.84
2023-08-16T02:43:38.825Z,18.87
2023-08-16T02:46:05.374Z,18.86
2023-08-16T02:48:32.436Z,18.87
2023-08-16T02:51:00.834Z,18.82
2023-08-16T02:53:28.683Z,18.78
2023-08-16T02:55:55.304Z,18.80
2023-08-16T02:58:21.840Z,18.73
2023-08-16T03:00:48.501Z,18.73
2023-08-16T03:03:15.159Z,18.66
2023-08-16T03:05:41.834Z,18.64
2023-08-16T03:08:08.703Z,18.67
2023-08-16T03:10:37.387Z,18.64
2023-08-16T03:13:04.446Z,18.64
2023-08-16T03:15:31.792Z,18.62
2023-08-16T03:17:58.730Z,18.66
2023-08-16T03:20:25.784Z,18.69
2023-08-16T03:22:54.127Z,18.80
2023-08-16T03:25:21.111Z,18.83
2023-08-16T03:27:51.650Z,18.85
2023-08-16T03:30:18.684Z,18.85
2023-08-16T03:32:45.637Z,18.82
2023-08-16T03:35:13.242Z,18.76
2023-08-16T03:37:40.092Z,18.82
2023-08-16T03:40:09.697Z,18.93
2023-08-16T03:42:41.196Z,18.98
2023-08-16T03:45:10.967Z,19.01
2023-08-16T03:47:39.740Z,18.97
2023-08-16T03:50:07.135Z,19.04
2023-08-16T03:52:33.860Z,19.01
2023-08-16T03:55:00.679Z,18.99
2023-08-16T03:57:27.421Z,19.09
2023-08-16T03:59:54.153Z,19.10
2023-08-16T04:02:25.679Z,19.12
2023-08-16T04:04:54.254Z,19.14
2023-08-16T04:07:23.143Z,19.11
2023-08-16T04:09:50.227Z,19.10
2023-08-16T04:12:17.057Z,19.17
2023-08-16T04:14:45.725Z,19.16
2023-08-16T04:17:12.399Z,19.14
2023-08-16T04:19:40.445Z,19.19
2023-08-16T04:22:10.762Z,19.25
2023-08-16T04:24:37.501Z,19.23
2023-08-16T04:27:04.980Z,19.20
2023-08-16T04:29:31.961Z,19.24
2023-08-16T04:32:00.612Z,19.27
2023-08-16T04:34:33.848Z,19.32
2023-08-16T04:37:02.065Z,19.29
2023-08-16T04:39:28.997Z,19.28
2023-08-16T04:41:56.055Z,19.30
2023-08-16T04:44:25.060Z,19.29
2023-08-16T04:46:52.034Z,19.22
2023-08-16T04:49:23.807Z,19.17
2023-08-16T04:51:50.809Z,19.19
2023-08-16T04:54:23.394Z,19.25
2023-08-16T04:56:56.787Z,19.25
2023-08-16T04:59:26.000Z,19.26
2023-08-16T05:02:01.659Z,19.22
2023-08-16T05:04:36.082Z,19.20
2023-08-16T05:07:06.112Z,19.26
2023-08-16T05:09:38.546Z,19.21
2023-08-16T05:12:05.734Z,19.22
2023-08-16T05:14:32.343Z,19.20
2023-08-16T05:17:01.525Z,19.24
2023-08-16T05:19:28.638Z,19.23
2023-08-16T05:21:55.533Z,19.22
2023-08-16T05:24:28.860Z,19.20
2023-08-16T05:27:07.565Z,19.25
2023-08-16T05:29:34.835Z,19.22
2023-08-16T05:32:13.322Z,19.27
2023-08-16T05:34:40.491Z,19.13
2023-08-16T05:37:09.282Z,19.24
2023-08-16T05:39:36.442Z,19.28
2023-08-16T05:42:22.085Z,19.26
2023-08-16T05:44:52.994Z,19.27
2023-08-16T05:47:22.822Z,19.32
2023-08-16T05:49:57.002Z,19.33
2023-08-16T05:52:23.811Z,19.37
2023-08-16T05:54:53.121Z,19.36
2023-08-16T05:57:23.242Z,19.39
2023-08-16T05:59:50.417Z,19.41
2023-08-16T06:02:17.113Z,19.45
2023-08-16T06:04:46.764Z,19.47
2023-08-16T06:07:13.711Z,19.47
2023-08-16T06:09:41.024Z,19.54
2023-08-16T06:12:11.030Z,19.51
2023-08-16T06:17:29.717Z,19.58
2023-08-16T06:19:57.500Z,19.62
2023-08-16T06:22:32.601Z,19.63
2023-08-16T06:25:02.941Z,19.73
2023-08-16T06:27:29.873Z,19.77
2023-08-16T06:30:00.571Z,19.83
2023-08-16T06:32:27.474Z,19.87
2023-08-16T06:34:56.967Z,19.91
2023-08-16T06:37:26.835Z,19.97
2023-08-16T06:39:53.944Z,19.89
2023-08-16T06:42:20.895Z,19.89
2023-08-16T06:45:01.545Z,19.97
2023-08-16T06:47:33.176Z,19.97
2023-08-16T06:50:00.865Z,20.07
2023-08-16T06:52:27.706Z,20.05
2023-08-16T06:54:57.714Z,20.03
2023-08-16T06:57:30.932Z,20.10
2023-08-16T07:00:00.105Z,20.23
2023-08-16T07:02:29.881Z,20.18
2023-08-16T07:05:02.438Z,20.23
2023-08-16T07:07:29.463Z,20.29
2023-08-16T07:10:03.479Z,20.45
2023-08-16T07:12:32.067Z,20.57
2023-08-16T07:15:01.105Z,20.73
2023-08-16T07:17:31.204Z,20.80
2023-08-16T07:19:59.350Z,20.92
2023-08-16T07:22:26.431Z,21.16
2023-08-16T07:24:53.505Z,21.32
2023-08-16T07:27:20.179Z,21.48
2023-08-16T07:29:47.189Z,21.53
2023-08-16T07:32:14.105Z,21.65
2023-08-16T07:34:43.000Z,21.72
2023-08-16T07:37:12.558Z,22.03
2023-08-16T07:39:39.289Z,22.46
2023-08-16T07:42:06.541Z,22.34
2023-08-16T07:44:33.281Z,22.40
2023-08-16T07:46:59.980Z,22.54
2023-08-16T07:49:26.873Z,22.55
2023-08-16T07:51:55.951Z,22.57
2023-08-16T07:54:24.449Z,22.50
2023-08-16T07:56:51.119Z,22.48
2023-08-16T07:59:23.050Z,22.64
2023-08-16T08:01:49.792Z,22.63
2023-08-16T08:04:16.532Z,22.69
2023-08-16T08:06:43.087Z,22.64
2023-08-16T08:09:09.818Z,22.55
2023-08-16T08:11:38.906Z,22.51
2023-08-16T08:14:06.150Z,22.51
2023-08-16T08:16:33.028Z,22.51
2023-08-16T08:18:59.913Z,22.35
2023-08-16T08:21:30.054Z,22.46
2023-08-16T08:23:59.859Z,22.53
2023-08-16T08:26:26.776Z,23.30
2023-08-16T08:28:57.541Z,23.82
2023-08-16T08:31:24.568Z,23.87
2023-08-16T08:33:51.365Z,23.99
2023-08-16T08:36:19.902Z,24.17
2023-08-16T08:38:46.683Z,24.26
2023-08-16T08:41:13.576Z,24.36
2023-08-16T08:43:57.516Z,24.47
2023-08-16T08:46:29.165Z,24.45
2023-08-16T08:48:59.253Z,24.24
2023-08-16T08:51:29.616Z,23.57
2023-08-16T08:53:57.106Z,23.18
2023-08-16T08:56:28.702Z,22.84
2023-08-16T08:59:12.427Z,22.91
2023-08-16T09:01:44.768Z,22.65
2023-08-16T09:04:13.937Z,22.99
2023-08-16T09:06:42.049Z,22.75
2023-08-16T09:09:09.196Z,23.07
2023-08-16T09:11:36.058Z,23.00
2023-08-16T09:14:03.571Z,23.19
2023-08-16T09:16:30.300Z,23.35
2023-08-16T09:18:58.219Z,23.38
2023-08-16T09:21:25.037Z,23.11
2023-08-16T09:23:57.457Z,23.17
2023-08-16T09:26:24.295Z,23.28
2023-08-16T09:28:56.893Z,23.59
2023-08-16T09:31:23.434Z,23.66
2023-08-16T09:33:54.134Z,23.69
2023-08-16T09:36:22.149Z,23.51
2023-08-16T09:38:48.745Z,23.37
2023-08-16T09:41:16.107Z,23.56
2023-08-16T09:43:42.675Z,23.65
2023-08-16T09:46:09.176Z,23.73
2023-08-16T09:48:35.894Z,23.91
2023-08-16T09:53:38.220Z,24.15
2023-08-16T09:56:37.309Z,24.02
2023-08-16T09:58:52.534Z,23.63
2023-08-16T10:09:07.284Z,23.73
2023-08-16T10:11:33.879Z,23.79
2023-08-16T10:14:01.843Z,24.04
2023-08-16T10:16:30.162Z,24.22
2023-08-16T10:18:58.794Z,24.43
2023-08-16T10:21:29.177Z,24.57
2023-08-16T10:23:57.179Z,24.72
2023-08-16T10:26:29.262Z,24.77
2023-08-16T10:28:58.614Z,24.73
2023-08-16T10:31:30.221Z,24.39
2023-08-16T10:33:58.314Z,24.45
2023-08-16T10:36:25.479Z,24.39
2023-08-16T10:38:59.090Z,24.39
2023-08-16T10:41:27.816Z,24.47
2023-08-16T10:43:55.300Z,24.52
2023-08-16T10:46:28.924Z,24.53
2023-08-16T10:49:02.547Z,24.52
2023-08-16T10:51:29.519Z,24.39
2023-08-16T10:53:56.478Z,24.39
2023-08-16T10:56:23.360Z,24.34
2023-08-16T10:58:52.379Z,24.22
2023-08-16T11:01:19.805Z,23.85
2023-08-16T11:03:46.746Z,23.98
2023-08-16T11:06:15.208Z,24.09
2023-08-16T11:08:42.396Z,24.29
2023-08-16T11:11:09.343Z,24.37
2023-08-16T11:13:35.918Z,24.39
2023-08-16T11:16:04.199Z,24.40
2023-08-16T11:18:35.050Z,24.45
2023-08-16T11:21:03.557Z,24.59
2023-08-16T11:23:34.280Z,24.78
2023-08-16T11:26:01.249Z,24.78
2023-08-16T11:28:28.277Z,24.30
2023-08-16T11:30:58.100Z,24.28
2023-08-16T11:33:31.093Z,24.50
2023-08-16T11:35:57.625Z,24.64
2023-08-16T11:38:24.134Z,24.74
2023-08-16T11:40:50.584Z,24.80
2023-08-16T11:43:17.054Z,24.91
2023-08-16T11:45:43.655Z,25.01
2023-08-16T11:48:25.770Z,24.97
2023-08-16T11:50:53.689Z,24.97
2023-08-16T11:53:20.941Z,24.95
2023-08-16T11:55:57.834Z,25.04
2023-08-16T11:58:24.338Z,25.04
2023-08-16T12:00:51.337Z,24.75
2023-08-16T12:03:18.295Z,24.84
2023-08-16T12:05:45.556Z,24.94
2023-08-16T12:08:13.902Z,25.01
2023-08-16T12:10:40.459Z,25.09
2023-08-16T12:13:14.536Z,25.27
2023-08-16T12:15:45.380Z,25.11
2023-08-16T12:18:12.101Z,25.22
2023-08-16T12:20:38.668Z,25.17
2023-08-16T12:23:05.233Z,25.19
2023-08-16T12:25:33.141Z,25.36
2023-08-16T12:27:59.692Z,25.21
2023-08-16T12:30:26.144Z,25.47
2023-08-16T12:32:52.785Z,25.85
2023-08-16T12:35:19.314Z,25.92
2023-08-16T12:37:46.158Z,25.94
2023-08-16T12:40:13.158Z,26.17
2023-08-16T12:42:40.955Z,25.90
2023-08-16T12:45:08.264Z,25.90
2023-08-16T12:47:34.835Z,25.80
2023-08-16T12:50:01.444Z,25.89
2023-08-16T12:52:28.054Z,26.02
2023-08-16T12:54:57.496Z,25.60
2023-08-16T12:57:26.386Z,25.49
2023-08-16T12:59:54.578Z,25.59
2023-08-16T13:02:36.289Z,25.63
2023-08-16T13:05:11.147Z,25.73
2023-08-16T13:10:23.208Z,26.61
2023-08-16T13:12:56.662Z,26.86
2023-08-16T13:15:39.836Z,26.65
2023-08-16T13:25:37.162Z,26.32
2023-08-16T13:28:17.536Z,26.28
2023-08-16T13:30:48.993Z,26.06
2023-08-16T13:33:29.859Z,26.04
2023-08-16T13:36:04.149Z,25.99
2023-08-16T13:41:14.777Z,26.04
2023-08-16T13:43:47.680Z,26.06
2023-08-16T13:46:18.469Z,26.21
2023-08-16T13:48:45.021Z,26.22
2023-08-16T13:51:11.499Z,26.78
2023-08-16T13:53:38.012Z,26.97
2023-08-16T13:56:04.789Z,27.03
2023-08-16T13:58:33.095Z,27.25
2023-08-16T14:00:59.877Z,27.42
2023-08-16T14:03:27.976Z,27.55
2023-08-16T14:05:55.572Z,27.65
2023-08-16T14:08:22.099Z,27.61
2023-08-16T14:10:50.873Z,27.36
2023-08-16T14:13:17.385Z,27.18
2023-08-16T14:15:44.006Z,27.22
2023-08-16T14:18:10.602Z,27.47
2023-08-16T14:20:39.469Z,27.36
2023-08-16T14:23:05.974Z,27.13
2023-08-16T14:25:32.890Z,27.04
2023-08-16T14:27:59.402Z,26.91
2023-08-16T14:30:25.911Z,26.84
2023-08-16T14:32:52.432Z,26.70
2023-08-16T14:35:19.136Z,26.31
2023-08-16T14:37:46.965Z,26.46
2023-08-16T14:40:22.226Z,26.41
2023-08-16T14:42:58.092Z,26.48
2023-08-16T14:45:24.678Z,26.86
2023-08-16T14:47:54.442Z,27.21
2023-08-16T14:50:21.272Z,27.52
2023-08-16T14:52:49.251Z,27.71
2023-08-16T14:55:15.760Z,27.77
2023-08-16T14:57:44.654Z,27.76
2023-08-16T15:00:12.528Z,27.71
2023-08-16T15:02:39.086Z,27.85
2023-08-16T15:05:12.634Z,27.79
2023-08-16T15:07:52.766Z,27.80
2023-08-16T15:10:23.623Z,28.03
2023-08-16T15:12:50.737Z,28.18
2023-08-16T15:15:24.918Z,27.99
2023-08-16T15:18:00.296Z,27.93
2023-08-16T15:20:31.687Z,27.70
2023-08-16T15:23:00.226Z,27.54
2023-08-16T15:25:32.000Z,27.35
2023-08-16T15:28:05.274Z,27.23
2023-08-16T15:30:34.134Z,27.19
2023-08-16T15:33:06.346Z,27.30
2023-08-16T15:35:39.214Z,27.32
2023-08-16T15:38:37.627Z,27.47
2023-08-16T15:41:07.654Z,27.22
2023-08-16T15:43:37.091Z,27.34
2023-08-16T15:46:04.625Z,27.52
2023-08-16T15:48:31.432Z,27.58
2023-08-16T15:51:11.350Z,27.72
2023-08-16T15:54:14.210Z,27.76
2023-08-16T15:56:48.149Z,27.92
2023-08-16T15:59:48.558Z,27.89
2023-08-16T16:02:25.116Z,27.79
2023-08-16T16:04:58.786Z,27.57
2023-08-16T16:07:28.690Z,27.40
2023-08-16T16:10:06.152Z,27.10
2023-08-16T16:12:40.053Z,26.93
2023-08-16T16:15:19.728Z,26.71
2023-08-16T16:17:46.581Z,26.52
2023-08-16T16:20:18.665Z,26.41
2023-08-16T16:22:57.375Z,26.48
2023-08-16T16:25:37.021Z,26.59
2023-08-16T16:28:13.508Z,26.74
2023-08-16T16:30:44.428Z,26.77
2023-08-16T16:33:26.480Z,26.73
2023-08-16T16:35:57.059Z,26.22
2023-08-16T16:38:32.568Z,26.08
2023-08-16T16:41:02.748Z,25.98
2023-08-16T16:43:41.621Z,25.89
2023-08-16T16:46:08.436Z,25.94
2023-08-16T16:48:35.288Z,26.00
2023-08-16T16:51:02.144Z,25.94
2023-08-16T16:53:28.999Z,26.01
2023-08-16T16:55:55.696Z,25.87
2023-08-16T16:58:22.626Z,25.76
2023-08-16T17:00:57.546Z,25.67
2023-08-16T17:03:34.867Z,25.67
2023-08-16T17:06:04.250Z,25.75
2023-08-16T17:08:41.478Z,25.64
2023-08-16T17:11:13.923Z,25.68
2023-08-16T17:13:44.133Z,25.66
2023-08-16T17:16:23.432Z,25.42
2023-08-16T17:18:51.796Z,25.32
2023-08-16T17:21:18.719Z,25.42
2023-08-16T17:23:51.206Z,25.37
2023-08-16T17:26:18.176Z,25.40
2023-08-16T17:28:45.261Z,25.21
2023-08-16T17:31:19.769Z,25.23
2023-08-16T17:33:50.895Z,25.23
2023-08-16T17:36:22.806Z,25.23
2023-08-16T17:38:51.917Z,25.24
2023-08-16T17:41:34.163Z,25.21
2023-08-16T17:44:10.833Z,25.13
2023-08-16T17:47:08.577Z,24.93
2023-08-16T17:49:47.452Z,24.90
2023-08-16T17:52:30.420Z,24.80
2023-08-16T17:54:57.290Z,24.70
2023-08-16T17:57:24.374Z,24.64
2023-08-16T17:59:51.345Z,24.68
2023-08-16T18:02:18.061Z,24.66
2023-08-16T18:04:46.066Z,24.64
2023-08-16T18:07:14.491Z,24.61
2023-08-16T18:09:42.271Z,24.58
2023-08-16T18:12:09.938Z,24.56
2023-08-16T18:14:36.551Z,24.50
2023-08-16T18:17:03.111Z,24.42
2023-08-16T18:19:29.710Z,24.33
2023-08-16T18:21:57.797Z,24.26
2023-08-16T18:24:26.533Z,24.17
2023-08-16T18:26:54.812Z,24.06
2023-08-16T18:29:21.290Z,23.97
2023-08-16T18:31:48.030Z,23.89
2023-08-16T18:34:14.512Z,23.80
2023-08-16T18:36:41.037Z,23.74
2023-08-16T18:39:08.949Z,23.64
2023-08-16T18:41:35.549Z,23.58
2023-08-16T18:44:02.020Z,23.52
2023-08-16T18:46:28.547Z,23.55
2023-08-16T18:48:55.100Z,23.53
2023-08-16T18:51:21.663Z,23.48
2023-08-16T18:53:48.189Z,23.45
2023-08-16T18:56:16.040Z,23.40
2023-08-16T18:58:42.575Z,23.38
2023-08-16T19:01:09.158Z,23.31
2023-08-16T19:03:35.691Z,23.27
2023-08-16T19:06:02.179Z,23.22
2023-08-16T19:08:28.679Z,23.17
2023-08-16T19:10:55.440Z,23.13
2023-08-16T19:13:23.303Z,23.07
2023-08-16T19:15:49.869Z,23.01
2023-08-16T19:18:16.483Z,22.92
2023-08-16T19:20:43.193Z,22.85
2023-08-16T19:23:21.122Z,22.79
2023-08-16T19:25:49.195Z,22.70
2023-08-16T19:28:25.371Z,22.68
2023-08-16T19:30:56.039Z,22.67
2023-08-16T19:33:36.241Z,22.65
2023-08-16T19:36:05.265Z,22.63
2023-08-16T19:38:34.684Z,22.61
2023-08-16T19:41:06.085Z,22.57
2023-08-16T19:43:38.894Z,22.58
2023-08-16T19:46:08.483Z,22.55
2023-08-16T19:48:35.017Z,22.52
2023-08-16T19:51:03.608Z,22.52
2023-08-16T19:53:33.466Z,22.47
2023-08-16T19:56:01.772Z,22.47
2023-08-16T19:58:28.299Z,22.47
2023-08-16T20:00:54.856Z,22.45
2023-08-16T20:03:22.896Z,22.42
2023-08-16T20:05:49.436Z,22.41
2023-08-16T20:08:15.892Z,22.39
2023-08-16T20:10:42.525Z,22.41
2023-08-16T20:13:09.019Z,22.33
2023-08-16T20:15:35.540Z,22.37
2023-08-16T20:18:02.129Z,22.35
2023-08-16T20:20:30.050Z,22.35
2023-08-16T20:22:59.513Z,22.34
2023-08-16T20:25:26.020Z,22.33
2023-08-16T20:27:52.531Z,22.29
2023-08-16T20:30:19.556Z,22.28
2023-08-16T20:32:51.352Z,22.25
2023-08-16T20:35:18.248Z,22.19
2023-08-16T20:37:51.674Z,22.16
2023-08-16T20:40:18.722Z,22.08
2023-08-16T20:42:45.244Z,22.07
2023-08-16T20:45:11.996Z,22.08
2023-08-16T20:47:39.616Z,22.03
2023-08-16T20:50:06.793Z,22.02
2023-08-16T20:52:33.807Z,22.02
2023-08-16T20:55:02.537Z,21.91
2023-08-16T20:57:29.159Z,21.90
2023-08-16T20:59:55.760Z,21.84
2023-08-16T21:02:22.378Z,21.84
2023-08-16T21:04:49.037Z,21.79
2023-08-16T21:07:15.994Z,21.82
2023-08-16T21:09:42.498Z,21.78
2023-08-16T21:12:10.484Z,21.77
2023-08-16T21:14:37.140Z,21.77
2023-08-16T21:17:04.054Z,21.73
2023-08-16T21:19:30.593Z,21.70
2023-08-16T21:21:57.142Z,21.70
2023-08-16T21:24:23.793Z,21.70
2023-08-16T21:26:50.610Z,21.70
2023-08-16T21:29:18.788Z,21.68
2023-08-16T21:31:45.471Z,21.65
2023-08-16T21:34:11.962Z,21.65
2023-08-16T21:36:42.385Z,21.64
2023-08-16T21:39:09.352Z,21.63
2023-08-16T21:41:36.178Z,21.59
2023-08-16T21:44:03.375Z,21.64
2023-08-16T21:46:32.114Z,21.70
2023-08-16T21:48:58.681Z,21.72
2023-08-16T21:51:28.006Z,21.74
2023-08-16T21:53:54.891Z,21.73
2023-08-16T21:56:24.392Z,21.74
2023-08-16T21:58:50.998Z,21.76
2023-08-16T22:01:20.545Z,21.79
2023-08-16T22:03:48.546Z,21.78
2023-08-16T22:06:16.747Z,21.78
2023-08-16T22:08:46.481Z,21.78
2023-08-16T22:11:12.929Z,21.77
2023-08-16T22:13:39.474Z,21.72
2023-08-16T22:16:05.989Z,21.68
2023-08-16T22:18:32.600Z,21.63
2023-08-16T22:21:03.823Z,21.61
2023-08-16T22:23:31.628Z,21.58
2023-08-16T22:25:58.577Z,21.56
2023-08-16T22:28:25.650Z,21.54
2023-08-16T22:30:53.590Z,21.55
2023-08-16T22:33:20.487Z,21.56
2023-08-16T22:35:47.741Z,21.51
2023-08-16T22:38:17.728Z,21.51
2023-08-16T22:40:45.933Z,21.49
2023-08-16T22:43:15.218Z,21.46
2023-08-16T22:45:41.766Z,21.42
2023-08-16T22:48:08.346Z,21.45
2023-08-16T22:50:34.980Z,21.43
2023-08-16T22:53:04.006Z,21.44
2023-08-16T22:55:35.638Z,21.42
2023-08-16T22:58:02.247Z,21.40
2023-08-16T23:00:28.884Z,21.37
2023-08-16T23:03:01.163Z,21.39
2023-08-16T23:05:32.913Z,21.38
2023-08-16T23:08:05.268Z,21.34
2023-08-16T23:10:33.408Z,21.37
2023-08-16T23:12:59.982Z,21.40
2023-08-16T23:15:26.751Z,21.33
2023-08-16T23:17:57.317Z,21.34
2023-08-16T23:20:23.868Z,21.33
2023-08-16T23:22:50.743Z,21.32
2023-08-16T23:25:17.558Z,21.32
2023-08-16T23:27:46.123Z,21.31
2023-08-16T23:30:15.886Z,21.32
2023-08-16T23:32:42.780Z,21.33
2023-08-16T23:35:09.573Z,21.34
2023-08-16T23:37:36.167Z,21.31
2023-08-16T23:40:02.763Z,21.30
2023-08-16T23:42:29.486Z,21.28
2023-08-16T23:44:57.407Z,21.30
2023-08-16T23:47:27.129Z,21.26
2023-08-16T23:49:58.707Z,21.25
2023-08-16T23:52:28.397Z,21.25
2023-08-16T23:54:55.026Z,21.24
2023-08-16T23:57:21.608Z,21.23
2023-08-16T23:59:51.053Z,21.21
